Time;durP1;ratioP1;P1;durP2;ratioP2;P2;SDS_P1;SDS_P2;PMS_P1;PMS_P2;Temp;Humidity;BMP_temperature;BMP_pressure;BME280_temperature;BME280_humidity;BME280_pressure;Samples;Min_cycle;Max_cycle;Signal;HPM_P1;HPM_P2
2023/05/28 00:00:51;;;;;;;19.33;11.02;;;;;;;;;;6189006;23;20011;-81
2023/05/28 00:03:19;;;;;;;20.08;11.07;;;;;;;;;;6184285;23;20016;-79
2023/05/28 00:05:44;;;;;;;22.52;10.57;;;;;;;;;;6183571;23;20425;-79
2023/05/28 00:08:10;;;;;;;21.88;10.82;;;;;;;;;;6158998;23;20008;-79
2023/05/28 00:10:35;;;;;;;19.50;10.48;;;;;;;;;;6185624;23;20001;-81
2023/05/28 00:13:01;;;;;;;21.75;10.40;;;;;;;;;;6183966;23;20075;-80
2023/05/28 00:15:26;;;;;;;17.80;10.30;;;;;;;;;;6185320;23;20028;-81
2023/05/28 00:17:52;;;;;;;15.68;9.45;;;;;;;;;;6184121;23;20028;-80
2023/05/28 00:20:19;;;;;;;19.33;9.82;;;;;;;;;;6185290;23;20036;-80
2023/05/28 00:22:45;;;;;;;16.88;9.80;;;;;;;;;;6185570;23;20005;-81
2023/05/28 00:25:11;;;;;;;16.65;8.95;;;;;;;;;;6183773;23;20005;-79
2023/05/28 00:27:37;;;;;;;15.38;8.93;;;;;;;;;;6185150;23;20363;-79
2023/05/28 00:30:03;;;;;;;14.65;8.85;;;;;;;;;;6184132;23;20004;-80
2023/05/28 00:32:28;;;;;;;17.05;8.88;;;;;;;;;;6185351;23;20005;-80
2023/05/28 00:34:53;;;;;;;15.02;8.18;;;;;;;;;;6183314;23;20005;-80
2023/05/28 00:37:19;;;;;;;17.65;8.75;;;;;;;;;;6185039;23;20004;-81
2023/05/28 00:39:44;;;;;;;16.67;8.60;;;;;;;;;;6185060;23;20075;-81
2023/05/28 00:42:12;;;;;;;16.58;8.65;;;;;;;;;;6159064;23;20001;-80
2023/05/28 00:44:41;;;;;;;18.83;8.35;;;;;;;;;;6183648;23;20005;-80
2023/05/28 00:47:06;;;;;;;16.52;7.97;;;;;;;;;;6185347;23;20080;-81
2023/05/28 00:49:35;;;;;;;14.32;7.88;;;;;;;;;;6158954;23;20016;-80
2023/05/28 00:52:01;;;;;;;12.57;8.05;;;;;;;;;;6135981;23;20083;-80
2023/05/28 00:54:26;;;;;;;16.63;8.38;;;;;;;;;;6134432;23;20437;-81
2023/05/28 00:56:57;;;;;;;13.85;7.90;;;;;;;;;;6158626;23;20009;-80
2023/05/28 00:59:23;;;;;;;15.32;7.95;;;;;;;;;;6159174;23;20425;-80
2023/05/28 01:01:48;;;;;;;13.43;7.85;;;;;;;;;;6162322;23;20016;-81
2023/05/28 01:04:14;;;;;;;15.98;8.23;;;;;;;;;;6188355;23;20004;-81
2023/05/28 01:06:39;;;;;;;11.93;7.78;;;;;;;;;;6188254;23;20011;-80
2023/05/28 01:09:06;;;;;;;12.75;8.32;;;;;;;;;;6188338;23;20031;-81
2023/05/28 01:11:31;;;;;;;14.90;9.18;;;;;;;;;;6188395;23;20433;-81
2023/05/28 01:13:56;;;;;;;16.55;8.73;;;;;;;;;;6163574;23;20005;-80
2023/05/28 01:16:22;;;;;;;15.93;8.50;;;;;;;;;;6138869;23;20004;-81
2023/05/28 01:18:48;;;;;;;12.40;7.57;;;;;;;;;;6163510;23;20005;-81
2023/05/28 01:21:14;;;;;;;12.18;7.60;;;;;;;;;;6163957;23;20001;-81
2023/05/28 01:23:46;;;;;;;14.43;7.45;;;;;;;;;;6188468;23;20001;-80
2023/05/28 01:26:12;;;;;;;20.38;8.77;;;;;;;;;;6163734;23;20147;-80
2023/05/28 01:28:41;;;;;;;14.60;8.60;;;;;;;;;;6138825;23;20009;-80
2023/05/28 01:31:08;;;;;;;15.53;8.43;;;;;;;;;;6165097;23;20001;-80
2023/05/28 01:33:33;;;;;;;17.42;8.70;;;;;;;;;;6188782;23;20423;-80
2023/05/28 01:35:59;;;;;;;14.40;8.75;;;;;;;;;;6188563;23;20001;-81
2023/05/28 01:38:24;;;;;;;18.75;8.55;;;;;;;;;;6163503;23;20004;-80
2023/05/28 01:40:52;;;;;;;15.85;8.23;;;;;;;;;;6188326;23;20033;-81
2023/05/28 01:43:18;;;;;;;15.90;8.60;;;;;;;;;;6163785;23;20071;-81
2023/05/28 01:45:44;;;;;;;14.98;8.68;;;;;;;;;;6188247;23;20020;-81
2023/05/28 01:48:09;;;;;;;17.25;8.85;;;;;;;;;;6188857;23;20009;-81
2023/05/28 01:50:34;;;;;;;15.10;8.88;;;;;;;;;;6214496;23;20004;-81
2023/05/28 01:53:00;;;;;;;17.70;8.90;;;;;;;;;;6188017;23;20004;-82
2023/05/28 01:55:25;;;;;;;18.90;9.20;;;;;;;;;;6187904;23;20000;-81
2023/05/28 01:57:51;;;;;;;15.68;9.02;;;;;;;;;;6138445;23;20015;-81
2023/05/28 02:00:17;;;;;;;20.27;10.52;;;;;;;;;;6162724;23;20001;-80
2023/05/28 02:02:42;;;;;;;19.42;9.93;;;;;;;;;;6187633;23;20066;-81
2023/05/28 02:05:08;;;;;;;21.25;10.70;;;;;;;;;;6187964;23;20005;-81
2023/05/28 02:07:34;;;;;;;20.50;10.80;;;;;;;;;;6188583;23;19996;-81
2023/05/28 02:09:59;;;;;;;20.20;10.63;;;;;;;;;;6187967;23;20009;-82
2023/05/28 02:12:25;;;;;;;25.45;11.43;;;;;;;;;;6187858;23;20008;-81
2023/05/28 02:14:51;;;;;;;24.50;11.30;;;;;;;;;;6162585;23;20070;-81
2023/05/28 02:17:17;;;;;;;23.10;11.07;;;;;;;;;;6214173;23;20065;-81
2023/05/28 02:19:43;;;;;;;22.50;11.73;;;;;;;;;;6187732;23;20079;-82
2023/05/28 02:22:11;;;;;;;21.00;10.75;;;;;;;;;;6187793;23;20114;-81
2023/05/28 02:24:37;;;;;;;24.30;11.73;;;;;;;;;;6163764;23;20462;-79
2023/05/28 02:27:03;;;;;;;24.35;11.68;;;;;;;;;;6187872;23;20028;-79
2023/05/28 02:29:29;;;;;;;25.00;11.82;;;;;;;;;;6213579;23;20008;-79
2023/05/28 02:31:54;;;;;;;26.05;11.80;;;;;;;;;;6162508;23;20033;-79
2023/05/28 02:34:20;;;;;;;28.40;12.88;;;;;;;;;;6162656;23;19996;-81
2023/05/28 02:36:45;;;;;;;27.70;11.35;;;;;;;;;;6187527;23;20001;-81
2023/05/28 02:39:11;;;;;;;29.33;12.32;;;;;;;;;;6138115;23;20004;-81
2023/05/28 02:41:36;;;;;;;25.23;12.40;;;;;;;;;;6162886;23;20095;-79
2023/05/28 02:44:02;;;;;;;27.60;12.95;;;;;;;;;;6213627;23;20001;-79
2023/05/28 02:46:27;;;;;;;26.77;13.00;;;;;;;;;;6214169;23;20001;-79
2023/05/28 02:48:52;;;;;;;24.60;12.25;;;;;;;;;;6162834;23;20420;-79
2023/05/28 02:51:18;;;;;;;29.27;13.45;;;;;;;;;;6187387;23;20008;-81
2023/05/28 02:53:43;;;;;;;27.48;13.40;;;;;;;;;;6138050;23;20001;-79
2023/05/28 02:56:09;;;;;;;30.77;13.93;;;;;;;;;;6187420;23;20011;-81
2023/05/28 02:58:36;;;;;;;31.55;12.88;;;;;;;;;;6187195;23;20005;-81
2023/05/28 03:01:02;;;;;;;28.30;12.35;;;;;;;;;;6213765;23;20079;-81
2023/05/28 03:03:27;;;;;;;30.98;12.93;;;;;;;;;;6213585;23;20040;-81
2023/05/28 03:05:53;;;;;;;31.33;13.35;;;;;;;;;;6162991;23;20023;-81
2023/05/28 03:08:18;;;;;;;29.48;13.18;;;;;;;;;;6187098;23;20004;-81
2023/05/28 03:10:45;;;;;;;28.05;13.32;;;;;;;;;;6214334;23;20025;-81
2023/05/28 03:13:10;;;;;;;26.33;12.93;;;;;;;;;;6213680;23;20011;-79
2023/05/28 03:15:36;;;;;;;31.27;13.50;;;;;;;;;;6213771;23;20092;-79
2023/05/28 03:18:01;;;;;;;28.10;14.45;;;;;;;;;;6162256;23;20082;-80
2023/05/28 03:20:27;;;;;;;29.80;14.05;;;;;;;;;;6187215;23;20076;-79
2023/05/28 03:22:56;;;;;;;29.02;13.70;;;;;;;;;;6187510;23;20332;-79
2023/05/28 03:25:24;;;;;;;29.77;14.77;;;;;;;;;;6187375;23;20005;-79
2023/05/28 03:27:49;;;;;;;36.78;14.55;;;;;;;;;;6162413;23;20108;-79
2023/05/28 03:30:15;;;;;;;33.42;14.02;;;;;;;;;;6137374;23;20009;-80
2023/05/28 03:32:40;;;;;;;32.30;13.95;;;;;;;;;;6162142;23;20009;-80
2023/05/28 03:35:07;;;;;;;29.80;13.65;;;;;;;;;;6187350;23;20010;-80
2023/05/28 03:37:33;;;;;;;32.88;14.63;;;;;;;;;;6187466;23;20347;-80
2023/05/28 03:39:58;;;;;;;35.38;14.43;;;;;;;;;;6187041;23;20005;-81
2023/05/28 03:42:24;;;;;;;36.50;14.32;;;;;;;;;;6162143;23;20000;-80
2023/05/28 03:44:49;;;;;;;38.30;14.82;;;;;;;;;;6213843;23;20001;-81
2023/05/28 03:47:15;;;;;;;32.83;13.90;;;;;;;;;;6137806;23;20482;-80
2023/05/28 03:49:40;;;;;;;32.20;15.02;;;;;;;;;;6213341;23;20036;-80
2023/05/28 03:52:07;;;;;;;32.42;14.35;;;;;;;;;;6187064;23;20077;-79
2023/05/28 03:54:32;;;;;;;34.85;16.00;;;;;;;;;;6162604;23;20048;-80
2023/05/28 03:56:58;;;;;;;38.53;15.70;;;;;;;;;;6161791;23;20005;-80
2023/05/28 03:59:23;;;;;;;38.60;15.88;;;;;;;;;;6186652;23;20008;-80
2023/05/28 04:01:50;;;;;;;40.28;16.92;;;;;;;;;;6186968;23;20092;-81
2023/05/28 04:04:16;;;;;;;44.75;16.83;;;;;;;;;;6213626;23;20005;-81
2023/05/28 04:06:42;;;;;;;41.30;15.65;;;;;;;;;;6213255;23;20011;-81
2023/05/28 04:09:08;;;;;;;39.92;16.20;;;;;;;;;;6213269;23;20061;-81
2023/05/28 04:11:34;;;;;;;31.58;15.55;;;;;;;;;;6186934;23;20005;-81
2023/05/28 04:14:00;;;;;;;34.20;15.05;;;;;;;;;;6213296;23;20001;-81
2023/05/28 04:16:26;;;;;;;30.75;14.95;;;;;;;;;;6213202;23;20401;-81
2023/05/28 04:18:52;;;;;;;37.35;15.07;;;;;;;;;;6162094;23;20348;-80
2023/05/28 04:21:18;;;;;;;35.17;14.98;;;;;;;;;;6162617;23;20387;-82
2023/05/28 04:23:44;;;;;;;43.00;15.23;;;;;;;;;;6162230;23;20008;-81
2023/05/28 04:26:09;;;;;;;36.75;15.25;;;;;;;;;;6186592;23;20348;-81
2023/05/28 04:28:35;;;;;;;37.88;15.20;;;;;;;;;;6213441;23;20021;-82
2023/05/28 04:31:01;;;;;;;30.10;14.57;;;;;;;;;;6186743;23;20087;-81
2023/05/28 04:33:28;;;;;;;38.15;14.85;;;;;;;;;;6186890;23;19997;-81
2023/05/28 04:35:55;;;;;;;32.92;14.95;;;;;;;;;;6163132;23;20004;-81
2023/05/28 04:38:20;;;;;;;34.50;14.35;;;;;;;;;;6137650;23;20008;-80
2023/05/28 04:40:46;;;;;;;27.63;13.43;;;;;;;;;;6137455;23;20000;-80
2023/05/28 04:43:11;;;;;;;37.65;13.38;;;;;;;;;;6188108;23;20088;-79
2023/05/28 04:45:37;;;;;;;31.15;15.15;;;;;;;;;;6188457;23;20000;-80
2023/05/28 04:48:04;;;;;;;28.05;13.25;;;;;;;;;;6214778;23;20001;-80
2023/05/28 04:50:30;;;;;;;34.40;14.57;;;;;;;;;;6164185;23;20008;-80
2023/05/28 04:52:55;;;;;;;28.10;13.25;;;;;;;;;;6214929;23;19996;-81
2023/05/28 04:55:22;;;;;;;37.08;14.45;;;;;;;;;;6186760;23;20032;-80
2023/05/28 04:57:47;;;;;;;31.77;14.45;;;;;;;;;;6188775;23;20466;-80
2023/05/28 05:00:13;;;;;;;37.25;14.90;;;;;;;;;;6188922;23;20000;-81
2023/05/28 05:02:41;;;;;;;31.73;14.85;;;;;;;;;;6188223;23;20013;-81
2023/05/28 05:05:07;;;;;;;45.83;15.10;;;;;;;;;;6214880;23;20001;-81
2023/05/28 05:07:35;;;;;;;31.17;14.52;;;;;;;;;;6188642;23;20011;-81
2023/05/28 05:10:00;;;;;;;29.73;14.43;;;;;;;;;;6188265;23;20015;-81
2023/05/28 05:12:26;;;;;;;35.03;14.48;;;;;;;;;;6188397;23;20000;-81
2023/05/28 05:14:51;;;;;;;30.63;14.63;;;;;;;;;;6188470;23;20005;-81
2023/05/28 05:17:17;;;;;;;41.22;15.55;;;;;;;;;;6214689;23;20004;-79
2023/05/28 05:19:42;;;;;;;35.88;15.48;;;;;;;;;;6188516;23;20089;-81
2023/05/28 05:22:07;;;;;;;35.35;15.23;;;;;;;;;;6188492;23;20432;-81
2023/05/28 05:24:33;;;;;;;35.58;16.75;;;;;;;;;;6162935;23;20008;-79
2023/05/28 05:26:58;;;;;;;38.83;15.57;;;;;;;;;;6188115;23;20375;-79
2023/05/28 05:29:24;;;;;;;34.33;14.00;;;;;;;;;;6214817;23;20005;-79
2023/05/28 05:31:50;;;;;;;28.30;14.48;;;;;;;;;;6214992;23;20005;-80
2023/05/28 05:34:15;;;;;;;36.22;14.98;;;;;;;;;;6188106;23;20001;-80
2023/05/28 05:36:41;;;;;;;35.35;14.65;;;;;;;;;;6215089;23;20301;-80
2023/05/28 05:39:07;;;;;;;26.60;14.60;;;;;;;;;;6214410;23;20462;-80
2023/05/28 05:41:32;;;;;;;36.05;14.50;;;;;;;;;;6163823;23;20076;-80
2023/05/28 05:43:57;;;;;;;29.67;13.95;;;;;;;;;;6214325;23;20424;-81
2023/05/28 05:46:23;;;;;;;35.67;14.93;;;;;;;;;;6214358;23;20009;-81
2023/05/28 05:48:48;;;;;;;32.90;15.55;;;;;;;;;;6214428;23;20027;-81
2023/05/28 05:51:18;;;;;;;39.47;14.57;;;;;;;;;;6214393;23;20007;-82
2023/05/28 05:53:43;;;;;;;35.17;15.50;;;;;;;;;;6214016;23;20415;-82
2023/05/28 05:56:09;;;;;;;32.47;14.52;;;;;;;;;;6214467;23;20007;-81
2023/05/28 05:58:35;;;;;;;27.52;13.90;;;;;;;;;;6214498;23;20087;-81
2023/05/28 06:01:00;;;;;;;30.73;13.90;;;;;;;;;;6214397;23;20005;-82
2023/05/28 06:03:27;;;;;;;26.80;13.52;;;;;;;;;;6214047;23;20459;-82
2023/05/28 06:05:55;;;;;;;30.55;13.32;;;;;;;;;;6188169;23;20084;-82
2023/05/28 06:08:20;;;;;;;29.15;12.88;;;;;;;;;;6138280;23;20005;-81
2023/05/28 06:10:47;;;;;;;26.02;12.68;;;;;;;;;;6214245;23;20547;-81
2023/05/28 06:13:16;;;;;;;29.55;12.93;;;;;;;;;;6214176;23;20340;-80
2023/05/28 06:15:41;;;;;;;28.48;12.82;;;;;;;;;;6187951;23;20075;-80
2023/05/28 06:18:07;;;;;;;29.58;13.43;;;;;;;;;;6214467;23;20055;-81
2023/05/28 06:20:33;;;;;;;25.17;12.68;;;;;;;;;;6162778;23;20012;-81
2023/05/28 06:22:58;;;;;;;27.20;12.52;;;;;;;;;;6163268;23;20001;-80
2023/05/28 06:25:23;;;;;;;25.17;12.70;;;;;;;;;;6214477;23;20036;-80
2023/05/28 06:27:49;;;;;;;23.17;11.68;;;;;;;;;;6187527;23;20005;-80
2023/05/28 06:30:15;;;;;;;26.58;12.27;;;;;;;;;;6214005;23;20339;-83
2023/05/28 06:32:41;;;;;;;23.38;12.68;;;;;;;;;;6214027;23;20063;-80
2023/05/28 06:35:08;;;;;;;23.60;11.73;;;;;;;;;;6213674;23;20088;-81
2023/05/28 06:37:33;;;;;;;27.30;12.15;;;;;;;;;;6187985;23;20047;-80
2023/05/28 06:39:59;;;;;;;23.45;12.13;;;;;;;;;;6214013;23;20378;-81
2023/05/28 06:42:24;;;;;;;22.55;11.55;;;;;;;;;;6187469;23;20007;-81
2023/05/28 06:44:50;;;;;;;22.70;12.20;;;;;;;;;;6162956;23;20067;-79
2023/05/28 06:47:15;;;;;;;23.52;13.07;;;;;;;;;;6213033;23;20408;-79
2023/05/28 06:49:41;;;;;;;23.23;11.93;;;;;;;;;;6213883;23;20015;-80
2023/05/28 06:52:06;;;;;;;21.65;11.68;;;;;;;;;;6188264;23;20011;-80
2023/05/28 06:54:32;;;;;;;27.30;12.35;;;;;;;;;;6188384;23;20087;-79
2023/05/28 06:56:57;;;;;;;26.75;12.52;;;;;;;;;;6215837;23;20415;-80
2023/05/28 06:59:23;;;;;;;26.40;13.15;;;;;;;;;;6188272;23;20095;-80
2023/05/28 07:01:48;;;;;;;29.25;12.75;;;;;;;;;;6187551;23;20013;-79
2023/05/28 07:04:14;;;;;;;26.48;12.40;;;;;;;;;;6162494;23;20067;-81
2023/05/28 07:06:40;;;;;;;24.92;11.60;;;;;;;;;;6187245;23;19997;-80
2023/05/28 07:09:05;;;;;;;25.05;11.32;;;;;;;;;;6187190;23;20079;-81
2023/05/28 07:11:31;;;;;;;23.92;12.50;;;;;;;;;;6187668;23;20024;-81
2023/05/28 07:13:56;;;;;;;25.77;12.75;;;;;;;;;;6187206;23;20336;-81
2023/05/28 07:16:22;;;;;;;27.10;13.38;;;;;;;;;;6163199;23;20079;-81
2023/05/28 07:18:47;;;;;;;29.75;12.50;;;;;;;;;;6162197;23;20008;-82
2023/05/28 07:21:13;;;;;;;25.77;12.65;;;;;;;;;;6187444;23;20000;-81
2023/05/28 07:23:38;;;;;;;26.83;12.40;;;;;;;;;;6187178;23;20010;-81
2023/05/28 07:26:04;;;;;;;26.85;13.55;;;;;;;;;;6162611;23;19997;-82
2023/05/28 07:28:30;;;;;;;23.75;12.55;;;;;;;;;;6213547;23;20075;-81
2023/05/28 07:30:56;;;;;;;25.88;13.00;;;;;;;;;;6187759;23;19997;-79
2023/05/28 07:33:21;;;;;;;27.13;12.80;;;;;;;;;;6187261;23;20340;-80
2023/05/28 07:35:47;;;;;;;33.38;13.02;;;;;;;;;;6213931;23;20005;-81
2023/05/28 07:38:14;;;;;;;28.60;13.52;;;;;;;;;;6187223;23;20012;-81
2023/05/28 07:40:40;;;;;;;25.70;12.65;;;;;;;;;;6187703;23;20403;-80
2023/05/28 07:43:05;;;;;;;25.08;12.65;;;;;;;;;;6213926;23;20009;-81
2023/05/28 07:45:31;;;;;;;29.85;13.45;;;;;;;;;;6187026;23;20336;-81
2023/05/28 07:47:56;;;;;;;25.27;12.50;;;;;;;;;;6186797;23;20016;-82
2023/05/28 07:50:22;;;;;;;29.85;13.23;;;;;;;;;;6186984;23;20498;-81
2023/05/28 07:52:47;;;;;;;33.95;14.10;;;;;;;;;;6162188;23;20035;-81
2023/05/28 07:55:13;;;;;;;28.02;13.10;;;;;;;;;;6213457;23;20051;-81
2023/05/28 07:57:38;;;;;;;30.98;13.73;;;;;;;;;;6162665;23;20007;-81
2023/05/28 08:00:06;;;;;;;28.33;12.90;;;;;;;;;;6162117;23;20000;-82
2023/05/28 08:02:32;;;;;;;27.67;12.95;;;;;;;;;;6212928;23;20019;-81
2023/05/28 08:04:59;;;;;;;28.02;13.65;;;;;;;;;;6186906;23;20008;-81
2023/05/28 08:07:24;;;;;;;27.58;13.00;;;;;;;;;;6214059;23;20096;-81
2023/05/28 08:09:50;;;;;;;25.33;13.20;;;;;;;;;;6213242;23;20008;-81
2023/05/28 08:12:16;;;;;;;35.75;14.00;;;;;;;;;;6187076;23;20001;-81
2023/05/28 08:14:41;;;;;;;22.58;12.63;;;;;;;;;;6162189;23;20011;-80
2023/05/28 08:17:07;;;;;;;25.35;13.38;;;;;;;;;;6188024;23;20000;-82
2023/05/28 08:19:32;;;;;;;28.40;14.18;;;;;;;;;;6164346;23;20011;-82
2023/05/28 08:21:58;;;;;;;26.50;13.23;;;;;;;;;;6188773;23;20087;-82
2023/05/28 08:24:23;;;;;;;30.25;13.75;;;;;;;;;;6188761;23;20035;-81
2023/05/28 08:26:49;;;;;;;29.30;12.57;;;;;;;;;;6188756;23;20064;-80
2023/05/28 08:29:14;;;;;;;31.08;13.77;;;;;;;;;;6215096;23;20062;-82
2023/05/28 08:31:40;;;;;;;33.30;13.57;;;;;;;;;;6163658;23;19997;-79
2023/05/28 08:34:05;;;;;;;28.20;14.07;;;;;;;;;;6163863;23;20004;-79
2023/05/28 08:36:31;;;;;;;29.10;13.88;;;;;;;;;;6188838;23;20008;-81
2023/05/28 08:38:56;;;;;;;25.15;13.68;;;;;;;;;;6188839;23;20062;-81
2023/05/28 08:41:23;;;;;;;25.05;13.23;;;;;;;;;;6188594;23;20006;-80
2023/05/28 08:43:48;;;;;;;26.13;13.98;;;;;;;;;;6188833;23;20000;-79
2023/05/28 08:46:14;;;;;;;27.95;13.75;;;;;;;;;;6215209;23;20047;-80
2023/05/28 08:48:40;;;;;;;25.70;13.43;;;;;;;;;;6188661;23;20011;-80
2023/05/28 08:51:06;;;;;;;27.65;13.85;;;;;;;;;;6163766;23;20004;-79
2023/05/28 08:53:43;;;;;;;26.88;13.13;;;;;;;;;;6163721;23;20029;-80
2023/05/28 08:56:09;;;;;;;26.38;13.65;;;;;;;;;;6164229;23;20009;-81
2023/05/28 08:58:38;;;;;;;25.58;13.35;;;;;;;;;;6188775;23;20363;-81
2023/05/28 09:01:08;;;;;;;28.20;13.30;;;;;;;;;;6189071;23;20011;-81
2023/05/28 09:03:33;;;;;;;27.38;13.52;;;;;;;;;;6163600;23;20127;-81
2023/05/28 09:05:59;;;;;;;27.20;13.73;;;;;;;;;;6163444;23;20340;-81
2023/05/28 09:08:24;;;;;;;24.67;13.30;;;;;;;;;;6188617;23;20001;-81
2023/05/28 09:10:50;;;;;;;23.83;13.20;;;;;;;;;;6188412;23;20000;-81
2023/05/28 09:13:19;;;;;;;24.67;12.98;;;;;;;;;;6163917;23;20004;-82
2023/05/28 09:15:50;;;;;;;25.15;14.13;;;;;;;;;;6163894;23;20004;-80
2023/05/28 09:18:19;;;;;;;23.88;12.48;;;;;;;;;;6188922;23;20360;-80
2023/05/28 09:20:44;;;;;;;28.65;13.73;;;;;;;;;;6163571;23;20000;-81
2023/05/28 09:23:10;;;;;;;26.77;13.77;;;;;;;;;;6188413;23;20431;-82
2023/05/28 09:25:36;;;;;;;21.33;12.88;;;;;;;;;;6188484;23;19992;-81
2023/05/28 09:28:02;;;;;;;23.60;12.70;;;;;;;;;;6163166;23;20764;-81
2023/05/28 09:30:29;;;;;;;23.55;13.13;;;;;;;;;;6188124;23;20000;-80
2023/05/28 09:33:07;;;;;;;26.52;12.27;;;;;;;;;;6188888;23;20387;-80
2023/05/28 09:35:32;;;;;;;22.90;12.32;;;;;;;;;;6188191;23;20445;-81
2023/05/28 09:38:10;;;;;;;21.02;12.57;;;;;;;;;;6139074;23;20012;-82
2023/05/28 09:40:42;;;;;;;22.98;11.80;;;;;;;;;;6164189;23;20135;-82
2023/05/28 09:43:08;;;;;;;21.10;12.65;;;;;;;;;;6214629;23;20000;-82
2023/05/28 09:45:34;;;;;;;26.13;12.30;;;;;;;;;;6214297;23;20395;-82
2023/05/28 09:47:59;;;;;;;20.23;12.82;;;;;;;;;;6163510;23;20009;-82
2023/05/28 09:50:25;;;;;;;24.75;12.82;;;;;;;;;;6138797;23;20008;-81
2023/05/28 09:52:51;;;;;;;20.90;11.05;;;;;;;;;;6188214;23;20080;-82
2023/05/28 09:55:18;;;;;;;20.00;11.38;;;;;;;;;;6138750;23;20092;-82
2023/05/28 09:58:01;;;;;;;23.65;11.30;;;;;;;;;;6163330;23;20018;-81
2023/05/28 10:00:35;;;;;;;19.73;11.15;;;;;;;;;;6165521;23;20012;-83
2023/05/28 10:03:13;;;;;;;21.92;12.38;;;;;;;;;;6188790;23;20436;-81
2023/05/28 10:05:56;;;;;;;19.27;10.68;;;;;;;;;;6163216;23;20012;-82
2023/05/28 10:08:22;;;;;;;14.20;8.45;;;;;;;;;;6139915;23;20403;-82
2023/05/28 10:10:52;;;;;;;14.50;7.18;;;;;;;;;;6187853;23;20005;-82
2023/05/28 10:13:17;;;;;;;14.70;8.50;;;;;;;;;;6187590;23;20004;-82
2023/05/28 10:15:43;;;;;;;16.80;9.35;;;;;;;;;;6187707;23;20027;-82
2023/05/28 10:18:08;;;;;;;13.68;8.95;;;;;;;;;;6163035;23;20000;-83
2023/05/28 10:20:34;;;;;;;18.95;10.23;;;;;;;;;;6214231;23;20005;-81
2023/05/28 10:23:00;;;;;;;15.38;8.48;;;;;;;;;;6187526;23;20593;-83
2023/05/28 10:25:25;;;;;;;11.98;8.40;;;;;;;;;;6187522;23;20004;-80
2023/05/28 10:27:51;;;;;;;11.27;7.78;;;;;;;;;;6187196;23;20420;-81
2023/05/28 10:30:36;;;;;;;11.23;8.05;;;;;;;;;;6162614;23;20012;-81
2023/05/28 10:33:08;;;;;;;14.15;10.07;;;;;;;;;;6187440;23;20413;-81
2023/05/28 10:35:35;;;;;;;15.25;9.02;;;;;;;;;;6187409;23;20033;-81
2023/05/28 10:38:07;;;;;;;14.05;7.78;;;;;;;;;;6213931;23;20039;-81
2023/05/28 10:40:34;;;;;;;13.38;7.65;;;;;;;;;;6162699;23;20011;-81
2023/05/28 10:43:00;;;;;;;9.63;6.95;;;;;;;;;;6187188;23;20005;-81
2023/05/28 10:45:36;;;;;;;12.45;7.57;;;;;;;;;;6162776;23;20019;-81
2023/05/28 10:48:01;;;;;;;11.77;7.97;;;;;;;;;;6187458;23;20000;-81
2023/05/28 10:50:27;;;;;;;11.02;7.55;;;;;;;;;;6187487;23;20062;-81
2023/05/28 10:53:05;;;;;;;14.85;8.82;;;;;;;;;;6188055;23;20098;-82
2023/05/28 10:55:50;;;;;;;11.82;7.95;;;;;;;;;;6187318;23;20432;-81
2023/05/28 10:58:45;;;;;;;11.50;7.75;;;;;;;;;;6163056;23;20095;-81
2023/05/28 11:01:11;;;;;;;13.73;7.47;;;;;;;;;;6156262;23;20009;-80
2023/05/28 11:03:41;;;;;;;12.10;7.78;;;;;;;;;;6213641;23;20422;-79
2023/05/28 11:06:07;;;;;;;13.93;7.15;;;;;;;;;;6162618;23;20008;-80
2023/05/28 11:08:44;;;;;;;13.73;7.50;;;;;;;;;;6187515;23;20115;-79
2023/05/28 11:11:14;;;;;;;13.30;8.20;;;;;;;;;;6188781;23;20011;-81
2023/05/28 11:13:47;;;;;;;12.20;7.45;;;;;;;;;;6162961;23;20028;-80
2023/05/28 11:16:15;;;;;;;22.73;9.20;;;;;;;;;;6163150;23;20352;-78
2023/05/28 11:19:01;;;;;;;18.42;7.97;;;;;;;;;;6213891;23;20030;-80
2023/05/28 11:21:26;;;;;;;17.40;8.95;;;;;;;;;;6162604;23;20015;-78
2023/05/28 11:24:12;;;;;;;19.13;9.82;;;;;;;;;;6187149;23;20000;-79
2023/05/28 11:26:37;;;;;;;18.15;9.40;;;;;;;;;;6186027;23;20009;-79
2023/05/28 11:29:03;;;;;;;16.60;10.35;;;;;;;;;;6161899;23;20063;-80
2023/05/28 11:31:28;;;;;;;17.20;9.50;;;;;;;;;;6161229;23;20009;-80
2023/05/28 11:33:54;;;;;;;15.10;9.55;;;;;;;;;;6161897;23;20007;-81
2023/05/28 11:36:20;;;;;;;16.00;9.55;;;;;;;;;;6162129;23;20020;-81
2023/05/28 11:38:46;;;;;;;14.93;10.05;;;;;;;;;;6186743;23;20005;-80
2023/05/28 11:41:12;;;;;;;20.33;9.88;;;;;;;;;;6186399;23;20432;-80
2023/05/28 11:43:37;;;;;;;24.15;10.80;;;;;;;;;;6213223;23;20004;-80
2023/05/28 11:46:04;;;;;;;19.02;11.05;;;;;;;;;;6213210;23;20035;-79
2023/05/28 11:48:29;;;;;;;19.95;11.35;;;;;;;;;;6162317;23;20408;-80
2023/05/28 11:51:01;;;;;;;20.02;11.32;;;;;;;;;;6137045;23;20066;-82
2023/05/28 11:53:42;;;;;;;21.30;11.40;;;;;;;;;;6161933;23;20012;-81
2023/05/28 11:56:08;;;;;;;18.55;10.73;;;;;;;;;;6161631;23;20005;-79
2023/05/28 11:58:34;;;;;;;19.70;11.00;;;;;;;;;;6161773;23;20065;-79
2023/05/28 12:01:00;;;;;;;21.95;10.48;;;;;;;;;;6213204;23;20433;-80
2023/05/28 12:03:26;;;;;;;21.95;11.73;;;;;;;;;;6213273;23;20013;-80
2023/05/28 12:05:51;;;;;;;19.10;11.23;;;;;;;;;;6213285;23;20015;-79
2023/05/28 12:08:19;;;;;;;22.27;10.40;;;;;;;;;;6213667;23;20000;-80
2023/05/28 12:10:45;;;;;;;16.77;10.75;;;;;;;;;;6162046;23;20397;-79
2023/05/28 12:13:12;;;;;;;21.85;11.35;;;;;;;;;;6162222;23;20001;-79
2023/05/28 12:15:37;;;;;;;21.50;11.02;;;;;;;;;;6161917;23;20356;-79
2023/05/28 12:18:04;;;;;;;21.15;11.48;;;;;;;;;;6162226;23;20005;-80
2023/05/28 12:20:42;;;;;;;19.60;12.27;;;;;;;;;;6162434;23;20004;-80
2023/05/28 12:23:09;;;;;;;22.92;12.13;;;;;;;;;;6161877;23;20062;-79
2023/05/28 12:25:43;;;;;;;23.95;11.80;;;;;;;;;;6161970;23;20087;-80
2023/05/28 12:28:12;;;;;;;23.42;12.43;;;;;;;;;;6186977;23;20356;-79
2023/05/28 12:30:38;;;;;;;22.98;11.85;;;;;;;;;;6186653;23;20412;-79
2023/05/28 12:33:04;;;;;;;21.50;12.00;;;;;;;;;;6186724;23;20000;-79
2023/05/28 12:35:30;;;;;;;20.70;11.70;;;;;;;;;;6213080;23;20000;-79
2023/05/28 12:37:55;;;;;;;21.23;11.02;;;;;;;;;;6186698;23;20009;-81
2023/05/28 12:40:20;;;;;;;20.17;11.45;;;;;;;;;;6213757;23;20008;-79
2023/05/28 12:42:46;;;;;;;20.00;11.45;;;;;;;;;;6161181;23;20011;-79
2023/05/28 12:45:11;;;;;;;20.92;12.48;;;;;;;;;;6186920;23;20344;-80
2023/05/28 12:47:36;;;;;;;20.95;11.98;;;;;;;;;;6186845;23;20348;-80
2023/05/28 12:50:02;;;;;;;20.85;12.00;;;;;;;;;;6186395;23;20008;-79
2023/05/28 12:52:27;;;;;;;23.45;12.43;;;;;;;;;;6186370;23;20000;-79
2023/05/28 12:54:53;;;;;;;21.17;12.68;;;;;;;;;;6186664;23;20005;-80
2023/05/28 12:57:19;;;;;;;26.67;13.57;;;;;;;;;;6186512;23;20015;-81
2023/05/28 12:59:44;;;;;;;23.15;13.45;;;;;;;;;;6186478;23;20645;-81
2023/05/28 13:02:10;;;;;;;26.23;13.45;;;;;;;;;;6136784;23;20126;-80
2023/05/28 13:04:35;;;;;;;20.63;12.63;;;;;;;;;;6214793;23;20063;-81
2023/05/28 13:07:01;;;;;;;21.98;12.15;;;;;;;;;;6188055;23;19997;-80
2023/05/28 13:09:26;;;;;;;20.77;12.95;;;;;;;;;;6188660;23;20012;-80
2023/05/28 13:11:51;;;;;;;22.85;11.98;;;;;;;;;;6188172;23;20008;-80
2023/05/28 13:14:17;;;;;;;20.52;12.18;;;;;;;;;;6163564;23;20001;-81
2023/05/28 13:16:42;;;;;;;24.25;13.57;;;;;;;;;;6214852;23;20550;-81
2023/05/28 13:19:08;;;;;;;22.88;12.70;;;;;;;;;;6214724;23;20005;-80
2023/05/28 13:21:35;;;;;;;23.52;11.52;;;;;;;;;;6214681;23;20039;-81
2023/05/28 13:24:04;;;;;;;19.27;11.20;;;;;;;;;;6163997;23;20012;-80
2023/05/28 13:26:31;;;;;;;17.13;10.60;;;;;;;;;;6163952;23;20616;-81
2023/05/28 13:28:57;;;;;;;17.00;9.93;;;;;;;;;;6163945;23;20008;-81
2023/05/28 13:31:22;;;;;;;16.30;9.93;;;;;;;;;;6214602;23;20313;-81
2023/05/28 13:33:48;;;;;;;16.48;9.85;;;;;;;;;;6163586;23;20026;-81
2023/05/28 13:36:13;;;;;;;14.93;9.95;;;;;;;;;;6188108;23;20012;-82
2023/05/28 13:38:42;;;;;;;16.23;9.77;;;;;;;;;;6214591;23;20000;-82
2023/05/28 13:41:10;;;;;;;18.13;10.60;;;;;;;;;;6163644;23;20094;-82
2023/05/28 13:43:37;;;;;;;20.33;11.45;;;;;;;;;;6139210;23;20004;-82
2023/05/28 13:46:05;;;;;;;16.17;9.93;;;;;;;;;;6163978;23;20103;-81
2023/05/28 13:48:31;;;;;;;18.23;10.27;;;;;;;;;;6187833;23;20490;-82
2023/05/28 13:50:57;;;;;;;17.67;10.82;;;;;;;;;;6187532;23;20095;-81
2023/05/28 13:53:22;;;;;;;18.30;9.85;;;;;;;;;;6162947;23;20012;-82
2023/05/28 13:55:48;;;;;;;17.75;10.40;;;;;;;;;;6163280;23;20415;-82
2023/05/28 13:58:13;;;;;;;18.13;9.88;;;;;;;;;;6163299;23;20095;-82
2023/05/28 14:00:39;;;;;;;14.45;9.77;;;;;;;;;;6163429;23;20009;-82
2023/05/28 14:03:04;;;;;;;18.77;10.07;;;;;;;;;;6163167;23;20390;-81
2023/05/28 14:05:30;;;;;;;18.05;10.10;;;;;;;;;;6162758;23;20009;-81
2023/05/28 14:07:55;;;;;;;15.32;9.20;;;;;;;;;;6138443;23;20001;-82
2023/05/28 14:10:21;;;;;;;15.45;9.60;;;;;;;;;;6214831;23;20009;-81
2023/05/28 14:12:50;;;;;;;17.27;10.25;;;;;;;;;;6187967;23;20005;-82
2023/05/28 14:15:15;;;;;;;18.90;10.48;;;;;;;;;;6162941;23;20005;-82
2023/05/28 14:17:41;;;;;;;13.60;9.48;;;;;;;;;;6188081;23;20020;-82